Time;durP1;ratioP1;P1;durP2;ratioP2;P2;SDS_P1;SDS_P2;PMS_P1;PMS_P2;Temp;Humidity;BMP_temperature;BMP_pressure;BME280_temperature;BME280_humidity;BME280_pressure;Samples;Min_cycle;Max_cycle;Signal;HPM_P1;HPM_P2
2022/05/26 00:01:40;;;;;;;6.65;2.35;;;;;;;;;;5129703;27;20153;-58
2022/05/26 00:04:06;;;;;;;7.00;3.28;;;;;;;;;;5148375;27;20109;-58
2022/05/26 00:06:32;;;;;;;8.15;3.80;;;;;;;;;;5148676;27;20068;-58
2022/05/26 00:08:59;;;;;;;11.10;4.10;;;;;;;;;;5129380;27;20430;-58
2022/05/26 00:11:28;;;;;;;11.82;4.80;;;;;;;;;;5129667;27;20073;-59
2022/05/26 00:13:54;;;;;;;;;;;;;;;;;;5111225;27;20121;-58
2022/05/26 00:16:20;;;;;;;14.40;5.22;;;;;;;;;;5128988;27;19919;-58
2022/05/26 00:18:47;;;;;;;11.13;5.47;;;;;;;;;;5148599;27;20088;-58
2022/05/26 00:21:13;;;;;;;9.75;5.32;;;;;;;;;;5148891;27;20038;-58
2022/05/26 00:23:39;;;;;;;14.45;6.78;;;;;;;;;;5129317;27;20396;-58
2022/05/26 00:26:06;;;;;;;13.55;7.47;;;;;;;;;;5146630;27;20041;-58
2022/05/26 00:28:32;;;;;;;14.65;7.22;;;;;;;;;;5129245;27;20042;-58
2022/05/26 00:30:58;;;;;;;18.77;8.60;;;;;;;;;;5133951;27;20085;-59
2022/05/26 00:33:24;;;;;;;19.20;8.50;;;;;;;;;;5139479;27;20051;-58
2022/05/26 00:35:51;;;;;;;20.40;8.23;;;;;;;;;;5128987;27;20043;-59
2022/05/26 00:38:17;;;;;;;13.48;8.02;;;;;;;;;;5146815;27;20041;-59
2022/05/26 00:40:44;;;;;;;14.50;8.00;;;;;;;;;;5147594;27;20113;-58
2022/05/26 00:43:11;;;;;;;15.88;8.93;;;;;;;;;;5148173;27;20060;-58
2022/05/26 00:45:41;;;;;;;21.25;9.13;;;;;;;;;;5147256;27;20050;-59
2022/05/26 00:48:09;;;;;;;18.65;8.85;;;;;;;;;;5130217;27;20720;-58
2022/05/26 00:50:40;;;;;;;22.45;9.18;;;;;;;;;;5109610;27;20091;-58
2022/05/26 00:53:09;;;;;;;24.92;10.00;;;;;;;;;;5128520;27;20127;-58
2022/05/26 00:55:40;;;;;;;26.60;8.95;;;;;;;;;;5127324;27;20035;-58
2022/05/26 00:58:07;;;;;;;30.17;10.38;;;;;;;;;;5147260;27;20058;-58
2022/05/26 01:00:35;;;;;;;26.75;9.48;;;;;;;;;;5147157;27;21900;-58
2022/05/26 01:03:04;;;;;;;25.23;9.73;;;;;;;;;;5147411;27;20038;-59
2022/05/26 01:05:34;;;;;;;28.05;10.30;;;;;;;;;;5146717;27;20087;-58
2022/05/26 01:08:01;;;;;;;24.23;8.98;;;;;;;;;;5128311;27;20039;-59
2022/05/26 01:10:27;;;;;;;24.00;10.02;;;;;;;;;;5126891;27;20034;-59
2022/05/26 01:12:53;;;;;;;33.08;10.68;;;;;;;;;;5127674;27;20058;-58
2022/05/26 01:15:21;;;;;;;32.70;11.00;;;;;;;;;;5127973;27;20045;-59
2022/05/26 01:17:47;;;;;;;30.27;10.05;;;;;;;;;;5147488;27;20174;-59
2022/05/26 01:20:20;;;;;;;28.08;10.88;;;;;;;;;;5129289;27;20711;-58
2022/05/26 01:22:47;;;;;;;37.35;10.68;;;;;;;;;;5147437;27;20043;-58
2022/05/26 01:25:24;;;;;;;34.50;8.75;;;;;;;;;;5137753;27;20520;-58
2022/05/26 01:28:06;;;;;;;32.40;9.82;;;;;;;;;;5144732;27;20043;-59
2022/05/26 01:30:53;;;;;;;47.35;10.63;;;;;;;;;;5146984;27;20064;-59
2022/05/26 01:33:31;;;;;;;42.70;10.07;;;;;;;;;;5127851;27;20050;-59
2022/05/26 01:36:04;;;;;;;31.13;8.95;;;;;;;;;;5143860;27;20122;-59
2022/05/26 01:38:36;;;;;;;36.92;9.35;;;;;;;;;;5145893;27;20027;-59
2022/05/26 01:41:17;;;;;;;33.90;10.13;;;;;;;;;;5146230;27;20065;-58
2022/05/26 01:43:49;;;;;;;38.00;9.48;;;;;;;;;;5140557;27;20552;-58
2022/05/26 01:46:21;;;;;;;38.53;10.02;;;;;;;;;;5142148;27;20107;-58
2022/05/26 01:48:54;;;;;;;38.00;9.43;;;;;;;;;;5146639;27;20043;-59
2022/05/26 01:51:32;;;;;;;38.08;9.32;;;;;;;;;;5145568;27;20135;-59
2022/05/26 01:54:02;;;;;;;45.90;9.93;;;;;;;;;;5127134;27;20126;-59
2022/05/26 01:56:41;;;;;;;36.00;9.43;;;;;;;;;;5143108;27;20049;-58
2022/05/26 01:59:09;;;;;;;40.38;9.50;;;;;;;;;;5146697;27;20264;-58
2022/05/26 02:01:39;;;;;;;37.17;9.00;;;;;;;;;;5127481;27;20068;-58
2022/05/26 02:04:09;;;;;;;38.35;8.98;;;;;;;;;;5130720;27;20088;-59
2022/05/26 02:06:38;;;;;;;34.60;9.25;;;;;;;;;;5126802;27;20081;-58
2022/05/26 02:09:09;;;;;;;31.33;9.73;;;;;;;;;;5109562;27;20494;-58
2022/05/26 02:11:38;;;;;;;39.55;9.48;;;;;;;;;;5125720;27;20050;-59
2022/05/26 02:14:12;;;;;;;43.22;9.63;;;;;;;;;;5127320;27;20492;-59
2022/05/26 02:16:44;;;;;;;35.13;9.63;;;;;;;;;;5145883;27;20160;-59
2022/05/26 02:19:16;;;;;;;43.45;10.40;;;;;;;;;;5146030;27;20066;-59
2022/05/26 02:21:47;;;;;;;48.47;10.48;;;;;;;;;;5146226;27;20066;-58
2022/05/26 02:24:17;;;;;;;47.38;9.77;;;;;;;;;;5142453;27;20060;-58
2022/05/26 02:26:43;;;;;;;45.35;9.32;;;;;;;;;;5107812;28;20547;-59
2022/05/26 02:31:54;;;;;;;41.53;10.13;;;;;;;;;;5123653;27;20058;-59
2022/05/26 02:34:21;;;;;;;36.88;9.38;;;;;;;;;;5141856;27;20059;-59
2022/05/26 02:36:50;;;;;;;40.05;8.77;;;;;;;;;;5126699;27;20046;-59
2022/05/26 02:39:16;;;;;;;50.88;9.95;;;;;;;;;;5127320;27;20055;-58
2022/05/26 02:41:43;;;;;;;40.33;9.68;;;;;;;;;;5127575;27;20036;-58
2022/05/26 02:44:10;;;;;;;40.17;9.60;;;;;;;;;;5130811;27;20062;-58
2022/05/26 02:46:43;;;;;;;43.58;10.50;;;;;;;;;;5126339;27;20035;-58
2022/05/26 02:49:20;;;;;;;31.02;8.00;;;;;;;;;;5136852;27;20074;-59
2022/05/26 02:52:02;;;;;;;43.78;9.50;;;;;;;;;;5150452;27;20060;-58
2022/05/26 02:54:29;;;;;;;38.00;9.25;;;;;;;;;;5138059;27;20508;-59
2022/05/26 02:57:15;;;;;;;40.05;8.60;;;;;;;;;;5130751;27;20118;-58
2022/05/26 02:59:48;;;;;;;41.55;7.90;;;;;;;;;;5130658;27;20042;-58
2022/05/26 03:02:18;;;;;;;39.17;8.38;;;;;;;;;;5131113;27;20127;-58
2022/05/26 03:04:46;;;;;;;45.70;8.32;;;;;;;;;;5145593;27;20544;-58
2022/05/26 03:07:17;;;;;;;32.88;7.45;;;;;;;;;;5150298;27;20038;-58
2022/05/26 03:09:43;;;;;;;39.33;7.75;;;;;;;;;;5149302;27;20039;-58
2022/05/26 03:12:21;;;;;;;40.80;8.32;;;;;;;;;;5149872;27;20054;-58
2022/05/26 03:14:47;;;;;;;38.72;6.97;;;;;;;;;;5132949;27;20492;-59
2022/05/26 03:17:13;;;;;;;32.45;7.70;;;;;;;;;;5130751;27;20108;-58
2022/05/26 03:19:40;;;;;;;45.50;7.40;;;;;;;;;;5130145;27;20043;-58
2022/05/26 03:22:06;;;;;;;39.55;7.15;;;;;;;;;;5130019;27;20043;-59
2022/05/26 03:24:33;;;;;;;36.20;7.72;;;;;;;;;;5145221;27;20059;-58
2022/05/26 03:26:59;;;;;;;38.85;6.75;;;;;;;;;;5149464;27;20403;-59
2022/05/26 03:29:25;;;;;;;31.60;6.80;;;;;;;;;;5130858;27;20093;-58
2022/05/26 03:31:51;;;;;;;29.38;7.15;;;;;;;;;;5149264;27;20031;-59
2022/05/26 03:42:48;;;;;;;32.85;6.30;;;;;;;;;;5143622;27;20067;-58
2022/05/26 03:45:14;;;;;;;33.50;6.38;;;;;;;;;;5134080;27;20059;-58
2022/05/26 03:47:40;;;;;;;34.25;5.82;;;;;;;;;;5129582;27;20073;-58
2022/05/26 03:50:07;;;;;;;26.42;5.75;;;;;;;;;;5129675;27;20039;-58
2022/05/26 03:52:33;;;;;;;27.55;5.80;;;;;;;;;;5133479;27;20113;-58
2022/05/26 03:54:59;;;;;;;27.45;5.88;;;;;;;;;;5128369;27;20453;-58
2022/05/26 03:57:27;;;;;;;31.63;5.95;;;;;;;;;;5129422;27;20039;-59
2022/05/26 03:59:53;;;;;;;35.63;5.53;;;;;;;;;;5128981;27;20035;-59
2022/05/26 04:02:19;;;;;;;31.23;5.72;;;;;;;;;;5133253;27;20051;-59
2022/05/26 04:04:45;;;;;;;23.52;5.72;;;;;;;;;;5149283;27;20045;-58
2022/05/26 04:07:13;;;;;;;31.10;5.43;;;;;;;;;;5149286;27;20041;-58
2022/05/26 04:09:40;;;;;;;29.60;5.50;;;;;;;;;;5147456;27;20038;-59
2022/05/26 04:12:08;;;;;;;27.35;5.00;;;;;;;;;;5143581;27;20064;-58
2022/05/26 04:14:35;;;;;;;31.40;4.93;;;;;;;;;;5128941;27;20048;-59
2022/05/26 04:17:01;;;;;;;22.60;4.68;;;;;;;;;;5139020;27;20039;-59
2022/05/26 04:19:28;;;;;;;23.65;5.30;;;;;;;;;;5144248;27;20045;-59
2022/05/26 04:24:39;;;;;;;21.02;4.15;;;;;;;;;;5144179;27;20039;-59
2022/05/26 04:27:05;;;;;;;22.77;4.43;;;;;;;;;;5146920;27;20518;-58
2022/05/26 04:29:32;;;;;;;29.13;4.82;;;;;;;;;;5144874;27;20441;-59
2022/05/26 04:31:59;;;;;;;16.52;3.83;;;;;;;;;;5144591;27;20066;-59
2022/05/26 04:34:25;;;;;;;22.30;4.40;;;;;;;;;;5135836;27;20043;-59
2022/05/26 04:36:52;;;;;;;25.80;4.78;;;;;;;;;;5123441;27;20038;-59
2022/05/26 04:39:18;;;;;;;29.27;4.93;;;;;;;;;;5110331;27;20117;-59
2022/05/26 04:41:45;;;;;;;20.70;3.05;;;;;;;;;;5137064;27;20031;-59
2022/05/26 04:44:12;;;;;;;13.13;2.55;;;;;;;;;;5148092;27;20038;-59
2022/05/26 04:46:38;;;;;;;14.85;2.80;;;;;;;;;;5147632;27;20050;-58
2022/05/26 04:49:05;;;;;;;11.25;2.70;;;;;;;;;;5134448;27;20584;-58
2022/05/26 04:51:31;;;;;;;15.63;2.60;;;;;;;;;;5129453;27;20481;-58
2022/05/26 04:53:57;;;;;;;15.98;3.20;;;;;;;;;;5127301;27;20496;-59
2022/05/26 04:56:24;;;;;;;11.85;2.35;;;;;;;;;;5128024;27;20088;-59
2022/05/26 04:58:50;;;;;;;14.93;2.22;;;;;;;;;;5128017;27;20035;-59
2022/05/26 05:01:19;;;;;;;13.82;2.70;;;;;;;;;;5133741;27;20072;-59
2022/05/26 05:03:46;;;;;;;16.30;2.78;;;;;;;;;;5140364;27;20039;-58
2022/05/26 05:06:13;;;;;;;15.37;2.17;;;;;;;;;;5135043;27;20043;-58
2022/05/26 05:08:39;;;;;;;14.57;1.75;;;;;;;;;;5148335;27;20055;-58
2022/05/26 05:11:05;;;;;;;13.82;2.35;;;;;;;;;;5137807;27;20087;-58
2022/05/26 05:13:33;;;;;;;16.85;5.13;;;;;;;;;;5127041;27;20392;-58
2022/05/26 05:16:07;;;;;;;12.80;2.10;;;;;;;;;;5137499;27;20518;-59
2022/05/26 05:18:33;;;;;;;19.35;5.80;;;;;;;;;;5148639;27;20038;-58
2022/05/26 05:21:02;;;;;;;12.70;2.22;;;;;;;;;;5148777;27;20066;-58
2022/05/26 05:23:28;;;;;;;11.18;1.63;;;;;;;;;;5136099;27;20123;-59
2022/05/26 05:25:56;;;;;;;14.50;2.17;;;;;;;;;;5108335;27;20039;-59
2022/05/26 05:28:24;;;;;;;11.07;2.00;;;;;;;;;;5127827;27;20126;-59
2022/05/26 05:30:57;;;;;;;9.80;2.22;;;;;;;;;;5127986;27;20041;-58
2022/05/26 05:33:26;;;;;;;8.15;1.70;;;;;;;;;;5121678;27;20051;-58
2022/05/26 05:36:07;;;;;;;44.20;25.15;;;;;;;;;;5130027;27;20608;-59
2022/05/26 05:38:35;;;;;;;8.07;1.35;;;;;;;;;;5148425;27;20130;-58
2022/05/26 05:41:01;;;;;;;9.98;1.77;;;;;;;;;;5147578;27;20047;-58
2022/05/26 05:43:29;;;;;;;7.32;1.13;;;;;;;;;;5147984;27;20180;-58
2022/05/26 05:45:55;;;;;;;5.85;1.23;;;;;;;;;;5147941;27;20050;-58
2022/05/26 05:48:22;;;;;;;5.35;1.10;;;;;;;;;;5148109;27;20039;-58
2022/05/26 05:50:48;;;;;;;8.45;1.33;;;;;;;;;;5147525;27;20130;-58
2022/05/26 05:53:15;;;;;;;7.00;1.23;;;;;;;;;;5147895;27;20507;-59
2022/05/26 05:55:42;;;;;;;8.32;1.30;;;;;;;;;;5146006;27;20483;-58
2022/05/26 05:58:09;;;;;;;4.95;1.48;;;;;;;;;;5135227;27;20071;-58
2022/05/26 06:00:36;;;;;;;4.70;1.38;;;;;;;;;;5147465;27;20514;-59
2022/05/26 06:03:02;;;;;;;11.95;1.45;;;;;;;;;;5136559;27;20489;-59
2022/05/26 06:05:28;;;;;;;10.63;2.60;;;;;;;;;;5108518;27;20495;-59
2022/05/26 06:07:55;;;;;;;8.65;2.28;;;;;;;;;;5144664;27;20042;-59
2022/05/26 06:10:21;;;;;;;13.23;1.55;;;;;;;;;;5146568;27;20038;-58
2022/05/26 06:12:47;;;;;;;10.82;2.30;;;;;;;;;;5147660;27;20075;-60
2022/05/26 06:15:13;;;;;;;4.38;1.00;;;;;;;;;;5136292;27;20074;-58
2022/05/26 06:17:39;;;;;;;6.45;1.13;;;;;;;;;;5126536;27;20051;-58
2022/05/26 06:20:07;;;;;;;10.10;3.63;;;;;;;;;;5127258;27;20043;-57
2022/05/26 06:22:37;;;;;;;6.93;1.38;;;;;;;;;;5126961;27;20118;-57
2022/05/26 06:25:03;;;;;;;6.78;0.95;;;;;;;;;;5126391;27;20043;-57
2022/05/26 06:30:16;;;;;;;5.82;1.20;;;;;;;;;;5125686;27;20039;-60
2022/05/26 06:38:19;;;;;;;6.78;1.33;;;;;;;;;;5134220;27;20053;-59
2022/05/26 06:40:46;;;;;;;5.90;1.13;;;;;;;;;;5134076;27;20065;-59
2022/05/26 06:43:14;;;;;;;7.25;0.93;;;;;;;;;;5136935;27;20045;-59
2022/05/26 06:45:41;;;;;;;6.82;0.95;;;;;;;;;;5144925;27;20078;-60
2022/05/26 06:48:08;;;;;;;14.85;3.35;;;;;;;;;;5136681;27;20050;-60
2022/05/26 06:50:34;;;;;;;4.78;1.63;;;;;;;;;;5143283;27;20117;-59
2022/05/26 06:53:00;;;;;;;8.35;3.50;;;;;;;;;;5143696;27;20066;-59
2022/05/26 06:55:27;;;;;;;17.88;1.73;;;;;;;;;;5124998;27;20043;-60
2022/05/26 06:57:53;;;;;;;6.10;1.35;;;;;;;;;;5144408;27;20050;-60
2022/05/26 07:00:20;;;;;;;8.63;0.90;;;;;;;;;;5140841;27;20049;-60
2022/05/26 07:02:46;;;;;;;13.88;1.38;;;;;;;;;;5141752;27;20083;-60
2022/05/26 07:05:13;;;;;;;6.57;1.45;;;;;;;;;;5141495;27;20537;-60
2022/05/26 07:07:40;;;;;;;3.58;0.60;;;;;;;;;;5139635;27;21313;-61
2022/05/26 07:10:07;;;;;;;7.07;0.70;;;;;;;;;;5133268;27;20051;-60
2022/05/26 07:12:33;;;;;;;9.38;4.20;;;;;;;;;;5126265;27;20452;-60
2022/05/26 07:15:00;;;;;;;5.95;1.20;;;;;;;;;;5134161;27;20141;-60
2022/05/26 07:17:26;;;;;;;3.47;0.65;;;;;;;;;;5122999;27;20142;-58
2022/05/26 07:19:52;;;;;;;3.47;0.60;;;;;;;;;;5125571;27;20043;-59
2022/05/26 07:22:19;;;;;;;6.55;0.73;;;;;;;;;;5140847;27;22032;-59
2022/05/26 07:24:48;;;;;;;7.32;0.80;;;;;;;;;;5114532;28;20047;-58
2022/05/26 07:27:14;;;;;;;7.45;1.13;;;;;;;;;;5106574;27;20080;-58
2022/05/26 07:29:40;;;;;;;3.40;0.63;;;;;;;;;;5114807;27;20039;-58
2022/05/26 07:32:06;;;;;;;4.10;1.05;;;;;;;;;;5122658;27;20047;-58
2022/05/26 07:34:33;;;;;;;8.75;0.82;;;;;;;;;;5133083;27;20051;-58
2022/05/26 07:42:32;;;;;;;12.35;2.83;;;;;;;;;;5141357;27;20043;-57
2022/05/26 07:44:59;;;;;;;8.05;2.00;;;;;;;;;;5141350;27;20078;-57
2022/05/26 07:47:27;;;;;;;1.77;0.80;;;;;;;;;;5137147;27;20052;-58
2022/05/26 07:49:53;;;;;;;;;;;;;;;;;;5143338;27;20598;-57
2022/05/26 07:52:19;;;;;;;4.00;0.60;;;;;;;;;;5115128;27;19945;-57
2022/05/26 07:54:46;;;;;;;4.68;0.70;;;;;;;;;;5135070;27;20046;-57
2022/05/26 07:57:21;;;;;;;6.13;1.23;;;;;;;;;;5133475;27;20042;-58
2022/05/26 07:59:47;;;;;;;6.15;1.10;;;;;;;;;;5120573;27;20136;-59
2022/05/26 08:02:14;;;;;;;4.80;0.63;;;;;;;;;;5142748;27;20043;-58
2022/05/26 08:04:40;;;;;;;8.07;0.68;;;;;;;;;;5133584;27;20050;-58
2022/05/26 08:07:06;;;;;;;5.68;0.52;;;;;;;;;;5136528;27;20049;-58
2022/05/26 08:09:32;;;;;;;4.47;0.55;;;;;;;;;;5140890;27;20057;-58
2022/05/26 08:11:59;;;;;;;4.53;0.75;;;;;;;;;;5142940;27;20133;-58
2022/05/26 08:14:25;;;;;;;15.35;0.88;;;;;;;;;;5142926;27;20035;-57
2022/05/26 08:16:51;;;;;;;3.08;0.70;;;;;;;;;;5136973;27;20133;-58
2022/05/26 08:19:18;;;;;;;10.05;1.48;;;;;;;;;;5139339;27;20042;-60
2022/05/26 08:21:44;;;;;;;7.85;0.60;;;;;;;;;;5123739;27;20041;-58
2022/05/26 08:24:10;;;;;;;3.53;0.90;;;;;;;;;;5138298;27;20046;-58
2022/05/26 08:26:37;;;;;;;3.72;0.52;;;;;;;;;;5137818;27;20496;-58
2022/05/26 08:29:03;;;;;;;4.50;0.50;;;;;;;;;;5138819;27;20046;-58
2022/05/26 08:31:29;;;;;;;5.13;0.60;;;;;;;;;;5132586;27;20109;-59
2022/05/26 08:33:56;;;;;;;4.97;0.50;;;;;;;;;;5129047;27;20500;-59
2022/05/26 08:36:28;;;;;;;3.47;0.50;;;;;;;;;;5138597;27;20046;-59
2022/05/26 08:38:55;;;;;;;7.68;2.15;;;;;;;;;;5141539;27;20074;-59
2022/05/26 08:41:25;;;;;;;5.00;0.50;;;;;;;;;;5135260;27;20043;-60
2022/05/26 08:43:56;;;;;;;5.85;1.02;;;;;;;;;;5143574;27;20061;-58
2022/05/26 08:46:22;;;;;;;5.72;0.60;;;;;;;;;;5141788;27;20046;-59
2022/05/26 08:48:59;;;;;;;3.30;0.50;;;;;;;;;;5127327;27;20054;-59
2022/05/26 08:51:29;;;;;;;3.53;0.40;;;;;;;;;;5145969;27;20082;-58
2022/05/26 08:53:56;;;;;;;5.18;0.57;;;;;;;;;;5145376;27;20054;-59
2022/05/26 08:56:25;;;;;;;6.57;0.52;;;;;;;;;;5145861;27;20050;-59
2022/05/26 08:58:52;;;;;;;4.38;1.30;;;;;;;;;;5138729;27;20087;-59
2022/05/26 09:01:21;;;;;;;4.78;1.35;;;;;;;;;;5131608;27;20117;-59
2022/05/26 09:03:47;;;;;;;10.70;2.00;;;;;;;;;;5136984;27;20050;-60
2022/05/26 09:06:15;;;;;;;4.97;0.98;;;;;;;;;;5139327;27;20035;-58
2022/05/26 09:14:20;;;;;;;9.07;0.68;;;;;;;;;;5136691;27;20038;-59
2022/05/26 09:16:46;;;;;;;11.75;0.80;;;;;;;;;;5141393;27;20137;-58
2022/05/26 09:19:15;;;;;;;2.90;0.40;;;;;;;;;;5135764;27;20105;-59
2022/05/26 09:21:42;;;;;;;4.05;0.50;;;;;;;;;;5139483;27;20100;-59
2022/05/26 09:24:17;;;;;;;4.38;0.32;;;;;;;;;;5138854;27;20046;-59
2022/05/26 09:26:46;;;;;;;3.28;0.47;;;;;;;;;;5140128;27;20126;-59
2022/05/26 09:29:13;;;;;;;1.98;0.30;;;;;;;;;;5129107;27;20043;-59
2022/05/26 09:31:46;;;;;;;5.03;0.50;;;;;;;;;;5141283;27;20039;-59
2022/05/26 09:34:15;;;;;;;5.78;0.60;;;;;;;;;;5137127;27;20183;-59
2022/05/26 09:36:50;;;;;;;4.00;0.70;;;;;;;;;;5140506;27;20043;-59
2022/05/26 09:39:19;;;;;;;8.73;3.97;;;;;;;;;;5134445;27;20042;-59
2022/05/26 09:41:46;;;;;;;4.10;1.20;;;;;;;;;;5126129;27;20480;-59
2022/05/26 09:44:29;;;;;;;5.38;1.08;;;;;;;;;;5138961;27;20126;-59
2022/05/26 09:46:57;;;;;;;2.53;0.40;;;;;;;;;;5122680;27;20129;-59
2022/05/26 09:49:23;;;;;;;;;;;;;;;;;;5135804;27;20091;-59
2022/05/26 09:51:50;;;;;;;3.70;0.57;;;;;;;;;;5138804;27;19923;-59
2022/05/26 09:54:23;;;;;;;8.65;0.90;;;;;;;;;;5136878;27;20078;-59
2022/05/26 09:56:49;;;;;;;3.85;0.45;;;;;;;;;;5138440;27;20045;-60
2022/05/26 09:59:22;;;;;;;9.25;0.80;;;;;;;;;;5130064;27;20133;-59
2022/05/26 10:01:49;;;;;;;3.97;1.13;;;;;;;;;;5133052;27;20078;-59
2022/05/26 10:04:16;;;;;;;3.55;0.90;;;;;;;;;;5135748;27;20051;-59
2022/05/26 10:06:49;;;;;;;7.00;1.50;;;;;;;;;;5137966;27;20035;-58
2022/05/26 10:09:24;;;;;;;3.55;0.40;;;;;;;;;;5130871;27;20534;-58
2022/05/26 10:12:11;;;;;;;7.18;1.23;;;;;;;;;;5139364;27;20050;-60
2022/05/26 10:14:45;;;;;;;5.78;0.70;;;;;;;;;;5120899;27;20057;-59
2022/05/26 10:17:23;;;;;;;2.92;0.40;;;;;;;;;;5139324;27;20159;-59
2022/05/26 10:19:49;;;;;;;;;;;;;;;;;;5138919;27;20046;-59
2022/05/26 10:22:41;;;;;;;1.60;0.30;;;;;;;;;;5134747;27;19927;-60
2022/05/26 10:25:21;;;;;;;6.45;1.10;;;;;;;;;;5118448;27;20124;-59
2022/05/26 10:27:57;;;;;;;4.63;0.57;;;;;;;;;;5133895;27;20143;-60
2022/05/26 10:30:25;;;;;;;3.75;0.57;;;;;;;;;;5141863;27;20043;-59
2022/05/26 10:32:58;;;;;;;4.35;0.60;;;;;;;;;;5141874;27;20061;-60
2022/05/26 10:35:27;;;;;;;3.80;0.63;;;;;;;;;;5151089;27;20099;-59
2022/05/26 10:38:07;;;;;;;4.18;0.50;;;;;;;;;;5146359;27;20051;-59
2022/05/26 10:40:47;;;;;;;5.70;0.70;;;;;;;;;;5135816;27;20039;-58
2022/05/26 10:43:18;;;;;;;5.50;0.70;;;;;;;;;;5131623;27;20082;-59
2022/05/26 10:45:48;;;;;;;3.58;0.70;;;;;;;;;;5129722;27;20039;-59
2022/05/26 10:48:19;;;;;;;3.53;0.80;;;;;;;;;;5129795;27;20039;-58
2022/05/26 10:50:51;;;;;;;7.28;0.80;;;;;;;;;;5139072;27;20030;-59
2022/05/26 10:53:20;;;;;;;6.50;0.90;;;;;;;;;;5134518;27;20046;-60
2022/05/26 10:55:50;;;;;;;5.75;0.70;;;;;;;;;;5141739;27;20046;-59
2022/05/26 10:58:19;;;;;;;5.18;0.85;;;;;;;;;;5121489;27;20095;-59
2022/05/26 11:00:49;;;;;;;3.20;0.80;;;;;;;;;;5139278;27;20038;-59
2022/05/26 11:03:25;;;;;;;7.03;1.23;;;;;;;;;;5134681;27;20035;-58
2022/05/26 11:05:55;;;;;;;5.68;0.80;;;;;;;;;;5144193;27;20039;-59
2022/05/26 11:08:36;;;;;;;7.85;0.80;;;;;;;;;;5140717;27;20039;-59
2022/05/26 11:11:32;;;;;;;5.45;1.10;;;;;;;;;;5146749;27;20038;-58
2022/05/26 11:14:05;;;;;;;7.18;1.73;;;;;;;;;;5123108;27;20058;-58
2022/05/26 11:19:29;;;;;;;7.32;1.48;;;;;;;;;;5144688;27;20034;-59
2022/05/26 11:21:56;;;;;;;14.73;1.25;;;;;;;;;;5143897;27;20504;-58
2022/05/26 11:24:23;;;;;;;3.50;1.02;;;;;;;;;;5144154;27;20543;-58
2022/05/26 11:26:54;;;;;;;4.30;1.58;;;;;;;;;;5134876;27;20507;-58
2022/05/26 11:29:24;;;;;;;28.25;1.73;;;;;;;;;;5130341;27;20027;-59
2022/05/26 11:37:28;;;;;;;7.43;1.63;;;;;;;;;;5130009;27;20039;-59
2022/05/26 11:39:57;;;;;;;7.43;1.20;;;;;;;;;;5144309;27;20117;-59
2022/05/26 11:42:23;;;;;;;;;;;;;;;;;;5140404;27;20090;-59
2022/05/26 11:45:11;;;;;;;35.22;4.32;;;;;;;;;;5132383;27;20376;-59
2022/05/26 11:47:50;;;;;;;6.57;2.13;;;;;;;;;;5130070;27;20284;-59
2022/05/26 11:50:24;;;;;;;5.30;1.60;;;;;;;;;;5130588;27;20138;-59
2022/05/26 11:52:53;;;;;;;7.00;0.88;;;;;;;;;;5132400;27;20038;-59
2022/05/26 11:55:33;;;;;;;5.57;0.77;;;;;;;;;;5136936;27;20035;-59
2022/05/26 11:58:18;;;;;;;3.40;1.17;;;;;;;;;;5129057;27;20472;-59
2022/05/26 12:00:46;;;;;;;14.30;5.90;;;;;;;;;;5148349;27;20043;-59
2022/05/26 12:03:31;;;;;;;10.02;1.48;;;;;;;;;;5130804;27;20043;-59
2022/05/26 12:06:11;;;;;;;20.25;4.82;;;;;;;;;;5145141;27;20043;-59
2022/05/26 12:08:40;;;;;;;32.15;19.77;;;;;;;;;;5135090;27;20170;-59
2022/05/26 12:11:09;;;;;;;4.90;1.52;;;;;;;;;;5130194;27;20053;-59
2022/05/26 12:13:36;;;;;;;9.65;1.13;;;;;;;;;;5129740;27;20051;-58
2022/05/26 12:16:09;;;;;;;5.75;0.90;;;;;;;;;;5132360;27;20046;-59
2022/05/26 12:18:40;;;;;;;8.18;1.52;;;;;;;;;;5136177;27;20047;-59
2022/05/26 12:21:11;;;;;;;5.68;1.48;;;;;;;;;;5129427;27;20088;-59
2022/05/26 12:23:37;;;;;;;5.03;0.90;;;;;;;;;;5128204;27;20046;-58
2022/05/26 12:26:37;;;;;;;5.15;1.10;;;;;;;;;;5117853;27;20039;-59
2022/05/26 12:29:21;;;;;;;5.40;0.98;;;;;;;;;;5134555;27;20164;-59
2022/05/26 12:32:06;;;;;;;6.93;1.20;;;;;;;;;;5147910;27;20087;-60
2022/05/26 12:34:37;;;;;;;7.63;0.77;;;;;;;;;;5143113;27;20058;-59
2022/05/26 12:37:06;;;;;;;6.07;1.10;;;;;;;;;;5135906;27;20163;-59
2022/05/26 12:39:33;;;;;;;7.38;0.90;;;;;;;;;;5139147;27;20039;-59
2022/05/26 12:42:03;;;;;;;6.70;0.93;;;;;;;;;;5143033;27;20038;-59
2022/05/26 12:44:35;;;;;;;5.32;1.42;;;;;;;;;;5138654;27;20042;-59
2022/05/26 12:47:24;;;;;;;4.25;1.08;;;;;;;;;;5138703;27;20458;-59
2022/05/26 12:49:59;;;;;;;5.05;1.00;;;;;;;;;;5146457;27;20522;-59
2022/05/26 12:52:31;;;;;;;3.60;0.73;;;;;;;;;;5143127;27;20058;-59
2022/05/26 12:55:18;;;;;;;8.80;1.80;;;;;;;;;;5130451;27;20054;-59
2022/05/26 12:57:48;;;;;;;6.80;0.98;;;;;;;;;;5146040;27;20043;-59
2022/05/26 13:00:21;;;;;;;5.28;1.27;;;;;;;;;;5147142;27;20060;-59
2022/05/26 13:02:50;;;;;;;17.52;1.30;;;;;;;;;;5128147;27;20039;-60
2022/05/26 13:05:17;;;;;;;4.30;0.70;;;;;;;;;;5131342;27;20035;-59
2022/05/26 13:07:46;;;;;;;6.85;1.00;;;;;;;;;;5134513;27;20039;-59
2022/05/26 13:10:14;;;;;;;13.75;1.35;;;;;;;;;;5147529;27;20040;-59
2022/05/26 13:12:40;;;;;;;59.33;3.25;;;;;;;;;;5145776;27;20067;-59
2022/05/26 13:15:08;;;;;;;6.53;0.93;;;;;;;;;;5130780;27;20043;-59
2022/05/26 13:17:34;;;;;;;6.00;0.80;;;;;;;;;;5132293;27;20503;-59
2022/05/26 13:20:02;;;;;;;6.78;0.95;;;;;;;;;;5128364;27;20039;-59
2022/05/26 13:22:31;;;;;;;7.95;1.20;;;;;;;;;;5129568;27;20137;-59
2022/05/26 13:24:59;;;;;;;8.23;0.85;;;;;;;;;;5133367;27;20035;-59
2022/05/26 13:27:26;;;;;;;13.13;1.23;;;;;;;;;;5128348;27;20039;-59
2022/05/26 13:29:53;;;;;;;18.40;1.40;;;;;;;;;;5110497;27;20042;-58
2022/05/26 13:35:15;;;;;;;11.93;1.48;;;;;;;;;;5126798;27;20058;-58
2022/05/26 13:37:42;;;;;;;12.07;1.38;;;;;;;;;;5133402;27;20477;-58
2022/05/26 13:40:11;;;;;;;8.50;1.35;;;;;;;;;;5110115;27;20130;-58
2022/05/26 13:42:39;;;;;;;8.95;1.05;;;;;;;;;;5139484;27;20043;-58
2022/05/26 13:45:05;;;;;;;;;;;;;;;;;;5145138;27;20043;-58
2022/05/26 13:47:31;;;;;;;7.57;1.00;;;;;;;;;;5132394;27;19919;-58
2022/05/26 13:50:06;;;;;;;6.88;0.90;;;;;;;;;;5127751;27;20082;-59
2022/05/26 13:52:34;;;;;;;4.70;0.98;;;;;;;;;;5130537;27;20038;-59
2022/05/26 13:55:04;;;;;;;5.40;0.70;;;;;;;;;;5145021;27;20039;-59
2022/05/26 13:57:33;;;;;;;24.63;1.38;;;;;;;;;;5140021;27;20046;-58
2022/05/26 14:00:01;;;;;;;4.15;0.90;;;;;;;;;;5145222;27;20043;-59
2022/05/26 14:02:27;;;;;;;;;;;;;;;;;;5142120;27;20039;-59
2022/05/26 14:04:59;;;;;;;3.40;0.60;;;;;;;;;;5128493;27;19927;-59
2022/05/26 14:07:34;;;;;;;10.98;0.93;;;;;;;;;;5142026;27;20039;-59
2022/05/26 14:10:01;;;;;;;6.43;1.05;;;;;;;;;;5139422;27;20054;-59
2022/05/26 14:12:28;;;;;;;26.37;1.57;;;;;;;;;;5126879;27;20128;-59
2022/05/26 14:14:55;;;;;;;6.17;0.83;;;;;;;;;;5143647;27;20107;-58
2022/05/26 14:17:27;;;;;;;8.80;0.93;;;;;;;;;;5143339;27;20288;-59
2022/05/26 14:19:55;;;;;;;6.65;1.23;;;;;;;;;;5126983;27;20038;-59
2022/05/26 14:22:23;;;;;;;13.82;1.27;;;;;;;;;;5126342;27;20042;-59
2022/05/26 14:24:50;;;;;;;6.80;0.98;;;;;;;;;;5138442;27;20126;-59
2022/05/26 14:27:17;;;;;;;4.20;1.10;;;;;;;;;;5144402;27;20070;-58
2022/05/26 14:29:46;;;;;;;11.75;1.35;;;;;;;;;;5144930;27;20050;-58
2022/05/26 14:32:12;;;;;;;;;;;;;;;;;;5141872;27;20399;-58
2022/05/26 14:34:39;;;;;;;8.93;1.17;;;;;;;;;;5140550;27;19919;-59
2022/05/26 14:37:05;;;;;;;8.70;1.30;;;;;;;;;;5140857;27;20046;-58
2022/05/26 14:39:32;;;;;;;8.45;1.45;;;;;;;;;;5142728;27;20070;-59
2022/05/26 14:41:59;;;;;;;7.43;1.45;;;;;;;;;;5144758;27;20122;-58
2022/05/26 14:44:26;;;;;;;11.02;1.23;;;;;;;;;;5140989;27;20057;-59
2022/05/26 14:46:52;;;;;;;5.50;1.35;;;;;;;;;;5142180;27;20065;-59
2022/05/26 14:49:19;;;;;;;4.80;1.10;;;;;;;;;;5138941;27;20039;-60
2022/05/26 14:51:48;;;;;;;6.82;1.30;;;;;;;;;;5127967;27;20492;-59
2022/05/26 14:56:59;;;;;;;8.25;1.30;;;;;;;;;;5126185;27;20044;-59
2022/05/26 14:59:26;;;;;;;4.32;1.00;;;;;;;;;;5141691;27;20064;-59
2022/05/26 15:01:52;;;;;;;7.25;1.27;;;;;;;;;;5141559;27;20388;-59
2022/05/26 15:04:19;;;;;;;9.13;1.63;;;;;;;;;;5134442;27;20053;-58
2022/05/26 15:06:46;;;;;;;5.22;1.10;;;;;;;;;;5113341;27;20035;-58
2022/05/26 15:09:20;;;;;;;8.00;1.45;;;;;;;;;;5130680;27;20047;-58
2022/05/26 15:11:47;;;;;;;7.07;1.65;;;;;;;;;;5134255;27;20109;-57
2022/05/26 15:14:13;;;;;;;8.15;2.05;;;;;;;;;;5138569;27;20031;-58
2022/05/26 15:16:42;;;;;;;8.52;1.20;;;;;;;;;;5143043;27;20035;-58
2022/05/26 15:19:09;;;;;;;7.50;1.52;;;;;;;;;;5141341;27;20534;-58
2022/05/26 15:21:36;;;;;;;6.63;1.50;;;;;;;;;;5139702;27;20070;-58
2022/05/26 15:24:02;;;;;;;8.45;1.80;;;;;;;;;;5137326;27;20042;-58
2022/05/26 15:26:28;;;;;;;9.68;1.92;;;;;;;;;;5139168;27;20457;-58
2022/05/26 15:28:56;;;;;;;12.70;1.52;;;;;;;;;;5141231;27;20059;-58
2022/05/26 15:31:23;;;;;;;5.72;1.23;;;;;;;;;;5140808;27;20087;-58
2022/05/26 15:33:49;;;;;;;8.00;1.80;;;;;;;;;;5124024;27;20133;-58
2022/05/26 15:36:18;;;;;;;5.80;1.70;;;;;;;;;;5141718;27;20449;-58
2022/05/26 15:38:46;;;;;;;10.55;1.45;;;;;;;;;;5139246;27;20117;-58